Time;durP1;ratioP1;P1;durP2;ratioP2;P2;SDS_P1;SDS_P2;PMS_P1;PMS_P2;Temp;Humidity;BMP_temperature;BMP_pressure;BME280_temperature;BME280_humidity;BME280_pressure;Samples;Min_cycle;Max_cycle;Signal;HPM_P1;HPM_P2
2024/04/22 00:01:44;;;;;;;6.32;2.50;;;16.30;69.80;;;;;;5428896;26;20010;-60
2024/04/22 00:04:09;;;;;;;6.07;2.17;;;16.30;69.80;;;;;;5425528;26;20014;-60
2024/04/22 00:06:35;;;;;;;6.15;2.20;;;16.30;69.80;;;;;;5423787;26;20003;-60
2024/04/22 00:09:00;;;;;;;6.65;2.58;;;16.30;69.80;;;;;;5431986;26;20005;-60
2024/04/22 00:11:26;;;;;;;5.18;2.28;;;16.30;69.80;;;;;;5424769;26;20472;-59
2024/04/22 00:13:51;;;;;;;6.95;2.40;;;16.30;69.80;;;;;;5430253;26;20358;-60
2024/04/22 00:16:17;;;;;;;6.32;2.67;;;16.30;69.80;;;;;;5426823;26;20036;-61
2024/04/22 00:18:45;;;;;;;6.07;2.47;;;16.30;69.80;;;;;;5428585;26;20901;-60
2024/04/22 00:21:11;;;;;;;6.50;2.55;;;16.30;69.80;;;;;;5428926;26;19999;-59
2024/04/22 00:23:36;;;;;;;6.70;2.53;;;16.30;69.80;;;;;;5422579;26;20077;-60
2024/04/22 00:26:02;;;;;;;6.47;2.58;;;16.20;70.30;;;;;;5431045;26;20010;-60
2024/04/22 00:28:28;;;;;;;6.35;2.30;;;16.20;69.80;;;;;;5424097;26;20004;-60
2024/04/22 00:30:53;;;;;;;6.97;2.65;;;16.20;69.80;;;;;;5429065;26;20006;-60
2024/04/22 00:33:19;;;;;;;6.43;2.45;;;16.20;69.80;;;;;;5419229;26;20046;-59
2024/04/22 00:35:58;;;;;;;5.90;2.42;;;16.20;69.80;;;;;;5429190;26;19999;-60
2024/04/22 00:38:27;;;;;;;6.63;2.78;;;16.20;69.80;;;;;;5425113;26;20003;-60
2024/04/22 00:40:53;;;;;;;6.55;2.47;;;16.20;69.80;;;;;;5430762;26;20538;-60
2024/04/22 00:43:19;;;;;;;6.13;2.40;;;16.20;69.90;;;;;;5429973;26;20065;-59
2024/04/22 00:45:45;;;;;;;6.07;2.30;;;16.20;69.80;;;;;;5423536;26;20010;-60
2024/04/22 00:48:12;;;;;;;6.10;2.30;;;16.10;69.80;;;;;;5427604;26;20003;-60
2024/04/22 00:50:37;;;;;;;5.47;2.13;;;16.10;69.80;;;;;;5428685;26;20006;-60
2024/04/22 00:53:08;;;;;;;5.70;2.22;;;16.10;69.80;;;;;;5423819;26;19996;-59
2024/04/22 00:55:35;;;;;;;6.25;2.40;;;16.10;69.90;;;;;;5428976;26;20377;-60
2024/04/22 00:58:04;;;;;;;5.82;2.60;;;16.10;69.90;;;;;;5425692;26;20000;-60
2024/04/22 01:00:30;;;;;;;5.38;2.17;;;16.10;69.90;;;;;;5430207;26;20849;-60
2024/04/22 01:02:56;;;;;;;7.05;2.63;;;16.00;69.80;;;;;;5431390;26;19995;-60
2024/04/22 01:05:22;;;;;;;5.63;2.13;;;16.10;69.90;;;;;;5422457;26;20014;-59
2024/04/22 01:07:47;;;;;;;5.60;2.17;;;16.10;69.90;;;;;;5425477;26;20011;-59
2024/04/22 01:10:13;;;;;;;5.70;2.17;;;16.00;69.90;;;;;;5428915;26;20006;-60
2024/04/22 01:12:39;;;;;;;5.32;2.30;;;16.00;69.80;;;;;;5426037;26;20050;-60
2024/04/22 01:15:05;;;;;;;6.53;2.40;;;16.00;69.90;;;;;;5426631;26;20007;-60
2024/04/22 01:17:43;;;;;;;6.63;2.40;;;16.00;69.90;;;;;;5428618;26;19995;-59
2024/04/22 01:20:09;;;;;;;5.85;2.20;;;16.00;69.90;;;;;;5427753;26;20003;-59
2024/04/22 01:22:35;;;;;;;5.35;2.00;;;16.00;70.00;;;;;;5424523;26;20576;-59
2024/04/22 01:25:05;;;;;;;5.90;2.08;;;16.00;70.00;;;;;;5425913;26;20019;-60
2024/04/22 01:27:32;;;;;;;5.75;2.28;;;16.00;70.00;;;;;;5429330;26;20007;-60
2024/04/22 01:30:08;;;;;;;5.50;2.30;;;15.90;70.00;;;;;;5425368;26;20000;-59
2024/04/22 01:32:35;;;;;;;5.45;2.20;;;15.90;70.00;;;;;;5428845;26;20524;-59
2024/04/22 01:35:08;;;;;;;5.60;2.20;;;15.90;70.00;;;;;;5422984;26;20018;-60
2024/04/22 01:37:33;;;;;;;4.90;2.08;;;15.90;70.00;;;;;;5434289;26;20358;-60
2024/04/22 01:39:59;;;;;;;5.05;2.03;;;15.90;70.10;;;;;;5425359;26;20000;-60
2024/04/22 01:42:25;;;;;;;7.43;2.22;;;15.90;70.10;;;;;;5432330;26;20007;-59
2024/04/22 01:44:51;;;;;;;5.50;2.22;;;15.80;70.10;;;;;;5419909;26;20014;-59
2024/04/22 01:47:17;;;;;;;6.00;2.30;;;15.80;70.10;;;;;;5428783;26;19995;-59
2024/04/22 01:49:43;;;;;;;5.72;2.30;;;15.80;70.20;;;;;;5425389;26;20011;-60
2024/04/22 01:52:08;;;;;;;6.75;2.35;;;15.80;70.20;;;;;;5428249;26;20027;-59
2024/04/22 01:54:34;;;;;;;5.35;2.10;;;15.80;70.20;;;;;;5426667;26;20099;-60
2024/04/22 01:57:00;;;;;;;6.03;2.20;;;15.80;70.30;;;;;;5425504;26;20855;-60
2024/04/22 01:59:28;;;;;;;5.38;2.30;;;15.80;70.30;;;;;;5429384;26;20009;-60
2024/04/22 02:01:54;;;;;;;5.13;1.88;;;15.80;70.30;;;;;;5424096;26;20003;-59
2024/04/22 02:04:19;;;;;;;5.03;2.10;;;15.80;70.30;;;;;;5427653;26;20105;-59
2024/04/22 02:06:45;;;;;;;5.25;2.15;;;15.80;70.30;;;;;;5424418;26;20004;-59
2024/04/22 02:09:10;;;;;;;5.55;2.15;;;15.80;70.30;;;;;;5428537;26;20091;-60
2024/04/22 02:11:38;;;;;;;6.05;2.40;;;15.80;70.40;;;;;;5426045;26;19995;-60
2024/04/22 02:14:04;;;;;;;5.82;2.20;;;15.80;70.40;;;;;;5426328;26;20003;-59
2024/04/22 02:16:29;;;;;;;5.70;2.30;;;15.80;70.40;;;;;;5427204;26;20009;-59
2024/04/22 02:18:55;;;;;;;5.65;2.50;;;15.70;70.30;;;;;;5425910;26;20046;-59
2024/04/22 02:21:22;;;;;;;5.53;2.22;;;15.70;70.30;;;;;;5429562;26;20573;-59
2024/04/22 02:23:50;;;;;;;5.82;2.00;;;15.70;70.30;;;;;;5418762;26;20010;-60
2024/04/22 02:26:16;;;;;;;5.35;2.30;;;15.70;70.30;;;;;;5423161;26;20326;-60
2024/04/22 02:28:41;;;;;;;5.45;2.15;;;15.70;70.30;;;;;;5424431;26;20014;-60
2024/04/22 02:31:07;;;;;;;6.10;2.20;;;15.70;70.30;;;;;;5428330;26;20031;-60
2024/04/22 02:33:32;;;;;;;5.68;2.30;;;15.70;70.30;;;;;;5424148;26;20010;-59
2024/04/22 02:35:58;;;;;;;5.47;2.10;;;15.70;70.30;;;;;;5430824;26;20010;-59
2024/04/22 02:38:24;;;;;;;5.10;2.10;;;15.70;70.30;;;;;;5422831;26;19999;-59
2024/04/22 02:40:49;;;;;;;5.15;2.10;;;15.70;70.40;;;;;;5425695;26;20350;-60
2024/04/22 02:43:15;;;;;;;5.65;2.30;;;15.70;70.40;;;;;;5423745;26;20015;-60
2024/04/22 02:45:40;;;;;;;4.78;1.95;;;15.70;70.40;;;;;;5430226;26;20004;-60
2024/04/22 02:48:06;;;;;;;6.85;2.17;;;15.70;70.40;;;;;;5426877;26;20003;-59
2024/04/22 02:50:33;;;;;;;6.55;2.17;;;15.70;70.40;;;;;;5425453;26;20014;-59
2024/04/22 02:52:58;;;;;;;4.80;2.10;;;15.70;70.30;;;;;;5425372;26;19996;-59
2024/04/22 02:55:28;;;;;;;5.28;1.98;;;15.70;70.30;;;;;;5426946;26;20010;-59
2024/04/22 02:57:57;;;;;;;5.40;2.00;;;15.70;70.30;;;;;;5424644;26;20008;-59
2024/04/22 03:00:23;;;;;;;7.07;2.30;;;15.70;70.30;;;;;;5427576;26;19995;-59
2024/04/22 03:02:49;;;;;;;6.03;1.90;;;15.70;70.30;;;;;;5428621;26;20010;-59
2024/04/22 03:05:14;;;;;;;5.40;2.20;;;15.70;70.30;;;;;;5421963;26;20517;-60
2024/04/22 03:07:40;;;;;;;5.53;2.00;;;15.60;70.30;;;;;;5422590;26;19999;-59
2024/04/22 03:10:06;;;;;;;5.20;2.05;;;15.60;70.40;;;;;;5427231;26;19995;-59
2024/04/22 03:12:32;;;;;;;5.07;1.92;;;15.60;70.40;;;;;;5424361;26;20062;-59
2024/04/22 03:14:58;;;;;;;5.88;2.10;;;15.60;70.40;;;;;;5425748;26;19999;-59
2024/04/22 03:17:24;;;;;;;5.65;2.10;;;15.60;70.40;;;;;;5426150;26;20076;-59
2024/04/22 03:19:50;;;;;;;5.22;2.03;;;15.70;70.50;;;;;;5417546;26;20032;-59
2024/04/22 03:22:16;;;;;;;5.65;2.15;;;15.70;70.50;;;;;;5425995;26;19995;-59
2024/04/22 03:24:41;;;;;;;5.40;2.25;;;15.70;70.50;;;;;;5420399;26;19999;-59
2024/04/22 03:27:07;;;;;;;5.68;2.20;;;15.70;70.50;;;;;;5422872;26;20015;-59
2024/04/22 03:29:33;;;;;;;4.90;2.10;;;15.70;70.50;;;;;;5425593;26;19999;-59
2024/04/22 03:31:58;;;;;;;5.25;2.05;;;15.80;70.40;;;;;;5424649;26;20013;-59
2024/04/22 03:34:24;;;;;;;5.28;1.92;;;15.80;70.40;;;;;;5420990;26;20081;-59
2024/04/22 03:36:50;;;;;;;5.38;2.03;;;15.80;70.30;;;;;;5427631;26;20014;-60
2024/04/22 03:39:15;;;;;;;5.25;2.00;;;15.90;70.30;;;;;;5428307;26;20617;-59
2024/04/22 03:41:43;;;;;;;6.63;2.15;;;15.90;70.20;;;;;;5424524;26;20071;-60
2024/04/22 03:44:09;;;;;;;6.68;2.35;;;16.00;70.20;;;;;;5435959;26;20010;-60
2024/04/22 03:52:04;;;;;;;5.47;2.20;;;16.10;70.00;;;;;;5425817;26;20010;-59
2024/04/22 03:54:29;;;;;;;5.18;1.90;;;16.10;70.00;;;;;;5427114;26;19999;-60
2024/04/22 03:56:55;;;;;;;5.30;1.92;;;16.10;70.00;;;;;;5425441;26;20076;-59
2024/04/22 03:59:20;;;;;;;5.43;2.03;;;16.10;70.00;;;;;;5432993;26;20407;-59
2024/04/22 04:01:49;;;;;;;4.70;2.00;;;16.10;70.00;;;;;;5422318;26;20010;-59
2024/04/22 04:04:14;;;;;;;7.03;1.95;;;16.20;70.00;;;;;;5422851;26;19999;-59
2024/04/22 04:06:40;;;;;;;5.15;2.15;;;16.20;70.00;;;;;;5423746;26;20014;-59
2024/04/22 04:09:06;;;;;;;5.00;2.10;;;16.20;70.00;;;;;;5429245;26;20037;-59
2024/04/22 04:11:39;;;;;;;5.57;2.00;;;16.30;69.90;;;;;;5429642;26;19999;-59
2024/04/22 04:14:07;;;;;;;5.13;1.92;;;16.30;69.90;;;;;;5427476;26;19999;-59
2024/04/22 04:16:33;;;;;;;5.63;2.30;;;16.30;70.50;;;;;;5434197;26;20010;-60
2024/04/22 04:18:59;;;;;;;8.85;3.08;;;16.30;70.60;;;;;;5421689;26;20246;-60
2024/04/22 04:21:25;;;;;;;6.95;2.10;;;16.30;72.40;;;;;;5426900;26;20526;-60
2024/04/22 04:23:50;;;;;;;5.60;1.92;;;16.30;72.90;;;;;;5432929;26;20006;-60
2024/04/22 04:26:16;;;;;;;5.75;2.10;;;16.40;72.30;;;;;;5430997;26;20109;-60
2024/04/22 04:28:42;;;;;;;6.10;2.10;;;16.40;72.00;;;;;;5432953;26;20010;-60
2024/04/22 04:31:07;;;;;;;4.97;2.00;;;16.40;71.90;;;;;;5421484;26;19995;-60
2024/04/22 04:33:33;;;;;;;5.13;2.00;;;16.40;71.70;;;;;;5421955;26;20094;-60
2024/04/22 04:36:00;;;;;;;5.90;2.30;;;16.50;71.60;;;;;;5421844;26;19999;-60
2024/04/22 04:38:25;;;;;;;7.43;2.60;;;16.50;73.50;;;;;;5427244;26;20454;-60
2024/04/22 04:40:51;;;;;;;6.35;2.47;;;16.50;72.30;;;;;;5409810;26;20014;-59
2024/04/22 04:43:16;;;;;;;5.13;2.10;;;16.60;72.00;;;;;;5430428;26;20048;-59
2024/04/22 04:45:42;;;;;;;5.63;2.10;;;16.50;71.80;;;;;;5423042;26;20756;-59
2024/04/22 04:48:08;;;;;;;5.97;1.98;;;16.60;71.70;;;;;;5411197;26;20007;-59
2024/04/22 04:50:33;;;;;;;5.95;1.92;;;16.60;71.60;;;;;;5429445;26;20107;-59
2024/04/22 04:52:59;;;;;;;4.95;1.90;;;16.60;71.50;;;;;;5415039;26;20015;-60
2024/04/22 04:55:27;;;;;;;5.72;2.00;;;16.50;71.20;;;;;;5430726;26;20010;-59
2024/04/22 04:57:55;;;;;;;6.10;2.20;;;16.50;71.10;;;;;;5418000;26;20084;-58
2024/04/22 05:00:21;;;;;;;5.65;2.10;;;16.50;71.00;;;;;;5429416;26;20784;-59
2024/04/22 05:02:46;;;;;;;5.65;2.03;;;16.50;71.00;;;;;;5418569;26;20003;-59
2024/04/22 05:05:12;;;;;;;6.30;2.08;;;16.50;70.90;;;;;;5411088;26;20400;-59
2024/04/22 05:07:37;;;;;;;5.88;2.10;;;16.50;70.80;;;;;;5423275;26;19999;-60
2024/04/22 05:10:03;;;;;;;5.82;1.92;;;16.50;70.80;;;;;;5416575;26;20004;-58
2024/04/22 05:12:29;;;;;;;8.05;2.17;;;16.50;71.50;;;;;;5416542;26;20096;-59
2024/04/22 05:14:55;;;;;;;5.35;2.13;;;16.40;71.90;;;;;;5416739;26;20134;-59
2024/04/22 05:17:23;;;;;;;5.75;2.20;;;16.40;71.40;;;;;;5415882;26;19999;-59
2024/04/22 05:19:49;;;;;;;5.63;2.13;;;16.40;71.30;;;;;;5419341;26;20030;-59
2024/04/22 05:22:17;;;;;;;6.00;2.10;;;16.40;71.30;;;;;;5429917;26;20412;-59
2024/04/22 05:24:42;;;;;;;6.47;2.10;;;16.40;71.10;;;;;;5417344;26;20007;-59
2024/04/22 05:27:08;;;;;;;6.55;2.10;;;16.40;71.10;;;;;;5423579;26;20011;-60
2024/04/22 05:29:33;;;;;;;6.22;2.13;;;16.50;71.00;;;;;;5432037;26;20053;-60
2024/04/22 05:31:59;;;;;;;6.35;2.10;;;16.50;71.50;;;;;;5417400;26;20236;-60
2024/04/22 05:37:09;;;;;;;5.25;1.95;;;16.50;71.30;;;;;;5433371;26;20474;-60
2024/04/22 05:39:36;;;;;;;5.93;1.98;;;16.60;71.30;;;;;;5423313;26;20100;-61
2024/04/22 05:42:02;;;;;;;7.13;2.20;;;16.60;71.20;;;;;;5442820;26;20050;-59
2024/04/22 05:44:27;;;;;;;5.90;1.83;;;16.60;71.20;;;;;;5418820;26;20000;-60
2024/04/22 05:46:53;;;;;;;5.70;2.08;;;16.60;71.20;;;;;;5439058;26;20419;-60
2024/04/22 05:49:19;;;;;;;6.15;2.50;;;16.70;71.30;;;;;;5425129;26;20271;-60
2024/04/22 05:51:44;;;;;;;7.53;2.10;;;16.70;71.30;;;;;;5438061;26;19995;-60
2024/04/22 05:54:10;;;;;;;5.50;1.92;;;16.80;71.40;;;;;;5414940;26;20088;-59
2024/04/22 05:56:36;;;;;;;5.97;2.42;;;16.80;71.40;;;;;;5425696;26;20003;-59
2024/04/22 05:59:02;;;;;;;15.50;2.10;;;16.80;71.40;;;;;;5422959;26;19996;-60
2024/04/22 06:01:27;;;;;;;6.25;2.25;;;16.90;71.50;;;;;;5419452;26;20035;-60
2024/04/22 06:03:56;;;;;;;7.40;2.40;;;16.90;72.00;;;;;;5410154;26;19999;-59
2024/04/22 06:06:21;;;;;;;6.38;2.17;;;17.00;72.50;;;;;;5430301;26;20531;-59
2024/04/22 06:08:47;;;;;;;5.32;1.95;;;17.00;72.10;;;;;;5428023;26;20018;-59
2024/04/22 06:11:13;;;;;;;6.53;1.95;;;17.00;71.80;;;;;;5416619;26;19999;-60
2024/04/22 06:13:39;;;;;;;5.55;1.88;;;17.10;71.70;;;;;;5420856;26;20091;-60
2024/04/22 06:16:05;;;;;;;5.85;1.90;;;17.00;71.50;;;;;;5416029;26;20000;-60
2024/04/22 06:18:30;;;;;;;6.85;2.00;;;17.10;71.30;;;;;;5422365;26;20004;-60
2024/04/22 06:20:56;;;;;;;6.80;2.00;;;17.10;71.20;;;;;;5424602;26;20006;-60
2024/04/22 06:23:22;;;;;;;5.78;2.30;;;17.10;71.20;;;;;;5416992;26;20007;-60
2024/04/22 06:25:47;;;;;;;5.32;1.80;;;17.10;71.30;;;;;;5424447;26;20045;-60
2024/04/22 06:28:13;;;;;;;5.07;1.92;;;17.10;71.30;;;;;;5425657;26;20000;-61
2024/04/22 06:30:38;;;;;;;4.93;1.90;;;17.10;71.30;;;;;;5422329;26;20056;-61
2024/04/22 06:33:04;;;;;;;8.02;1.92;;;17.10;71.30;;;;;;5427906;26;19999;-61
2024/04/22 06:35:30;;;;;;;5.43;2.05;;;17.10;71.30;;;;;;5429103;26;20556;-61
2024/04/22 06:37:58;;;;;;;6.00;2.17;;;17.10;71.40;;;;;;5427584;26;20090;-59
2024/04/22 06:40:23;;;;;;;6.18;2.08;;;17.10;71.40;;;;;;5415933;26;20011;-59
2024/04/22 06:42:49;;;;;;;5.63;2.00;;;17.10;71.40;;;;;;5427627;26;20031;-59
2024/04/22 06:45:15;;;;;;;6.22;2.10;;;17.10;71.50;;;;;;5426081;26;20036;-60
2024/04/22 06:47:40;;;;;;;7.22;1.95;;;17.10;71.50;;;;;;5427516;26;20060;-59
2024/04/22 06:50:06;;;;;;;5.05;1.83;;;17.10;71.60;;;;;;5427027;26;20003;-59
2024/04/22 06:52:34;;;;;;;6.07;2.17;;;17.00;71.60;;;;;;5426343;26;20423;-59
2024/04/22 06:55:00;;;;;;;4.57;1.70;;;17.00;71.60;;;;;;5422637;26;20476;-59
2024/04/22 06:57:27;;;;;;;6.18;2.00;;;17.00;71.60;;;;;;5429149;26;20444;-59
2024/04/22 06:59:53;;;;;;;6.65;1.88;;;17.00;71.50;;;;;;5420961;26;19999;-59
2024/04/22 07:02:18;;;;;;;5.38;2.08;;;17.10;71.50;;;;;;5423630;26;20083;-60
2024/04/22 07:04:45;;;;;;;5.00;1.70;;;17.00;71.50;;;;;;5426217;26;20014;-59
2024/04/22 07:07:10;;;;;;;5.50;1.77;;;17.10;71.50;;;;;;5424804;26;20403;-60
2024/04/22 07:09:36;;;;;;;6.10;2.08;;;17.00;71.40;;;;;;5420540;26;20011;-59
2024/04/22 07:12:01;;;;;;;5.57;1.88;;;17.10;71.60;;;;;;5422079;26;20342;-60
2024/04/22 07:14:27;;;;;;;6.45;2.10;;;17.10;71.50;;;;;;5422372;26;20007;-59
2024/04/22 07:16:54;;;;;;;4.90;1.80;;;17.10;71.50;;;;;;5428110;26;20014;-59
2024/04/22 07:19:20;;;;;;;5.55;1.90;;;17.10;71.50;;;;;;5421236;26;20007;-59
2024/04/22 07:21:45;;;;;;;5.07;1.80;;;17.10;71.60;;;;;;5422741;26;20003;-59
2024/04/22 07:24:11;;;;;;;6.97;1.98;;;17.10;71.60;;;;;;5423549;26;20010;-59
2024/04/22 07:26:37;;;;;;;5.93;1.80;;;17.10;71.70;;;;;;5424987;26;20075;-60
2024/04/22 07:29:02;;;;;;;5.28;1.85;;;17.10;71.70;;;;;;5424513;26;20000;-60
2024/04/22 07:31:28;;;;;;;4.47;1.80;;;17.10;71.70;;;;;;5427360;26;20075;-59
2024/04/22 07:33:54;;;;;;;5.18;1.67;;;17.10;71.70;;;;;;5421199;26;20012;-60
2024/04/22 07:36:36;;;;;;;5.05;1.90;;;17.10;71.70;;;;;;5434550;26;20002;-60
2024/04/22 07:39:04;;;;;;;5.35;2.30;;;17.10;71.70;;;;;;5428216;26;20015;-59
2024/04/22 07:41:30;;;;;;;5.18;1.90;;;17.10;71.80;;;;;;5428217;26;20281;-59
2024/04/22 07:43:56;;;;;;;5.38;1.70;;;17.10;71.70;;;;;;5420227;26;20072;-59
2024/04/22 07:46:24;;;;;;;5.00;1.88;;;17.10;71.70;;;;;;5427075;26;20007;-60
2024/04/22 07:48:51;;;;;;;5.35;1.73;;;17.10;71.70;;;;;;5418835;26;20450;-60
2024/04/22 07:51:17;;;;;;;4.18;1.60;;;17.10;71.70;;;;;;5426401;26;20021;-60
2024/04/22 07:53:42;;;;;;;4.15;1.70;;;17.10;71.70;;;;;;5417857;26;20517;-60
2024/04/22 07:56:12;;;;;;;4.75;1.70;;;17.10;71.70;;;;;;5423608;26;19996;-60
2024/04/22 07:58:38;;;;;;;3.90;1.67;;;17.10;71.70;;;;;;5420662;26;20075;-60
2024/04/22 08:01:04;;;;;;;4.85;1.75;;;17.10;71.70;;;;;;5422366;26;20011;-60
2024/04/22 08:03:31;;;;;;;4.75;1.80;;;17.20;71.80;;;;;;5424802;26;19999;-60
2024/04/22 08:06:03;;;;;;;5.53;1.90;;;17.20;71.80;;;;;;5421691;26;19995;-60
2024/04/22 08:08:30;;;;;;;5.00;1.60;;;17.20;71.80;;;;;;5423636;26;20484;-59
2024/04/22 08:10:58;;;;;;;5.47;1.75;;;17.20;71.80;;;;;;5419520;26;20323;-60
2024/04/22 08:13:24;;;;;;;4.70;1.70;;;17.20;71.80;;;;;;5426030;26;20009;-60
2024/04/22 08:15:50;;;;;;;4.63;1.80;;;17.20;71.80;;;;;;5419351;26;19995;-60
2024/04/22 08:18:16;;;;;;;4.63;1.70;;;17.20;71.80;;;;;;5422760;26;20823;-60
2024/04/22 08:20:41;;;;;;;6.30;1.70;;;17.20;71.80;;;;;;5420056;26;20446;-59
2024/04/22 08:23:07;;;;;;;5.00;1.80;;;17.20;71.80;;;;;;5423783;26;20049;-60
2024/04/22 08:25:33;;;;;;;4.20;1.73;;;17.20;71.80;;;;;;5426131;26;20003;-59
2024/04/22 08:28:01;;;;;;;4.30;1.70;;;17.20;71.80;;;;;;5425821;26;20003;-60
2024/04/22 08:30:27;;;;;;;5.60;1.67;;;17.20;71.80;;;;;;5428454;26;19999;-60
2024/04/22 08:32:59;;;;;;;4.97;1.73;;;17.20;71.90;;;;;;5423470;26;20059;-60
2024/04/22 08:35:25;;;;;;;4.57;1.73;;;17.20;71.90;;;;;;5427669;26;20002;-60
2024/04/22 08:37:53;;;;;;;5.10;1.70;;;17.20;71.90;;;;;;5429189;26;20197;-60
2024/04/22 08:40:19;;;;;;;5.13;1.73;;;17.30;72.00;;;;;;5428732;26;20370;-60
2024/04/22 08:42:46;;;;;;;4.18;1.50;;;17.30;72.00;;;;;;5423291;26;20046;-60
2024/04/22 08:45:12;;;;;;;5.18;1.90;;;17.30;72.00;;;;;;5427984;26;20003;-60
2024/04/22 08:47:37;;;;;;;5.45;1.80;;;17.30;72.00;;;;;;5424065;26;20003;-60
2024/04/22 08:50:03;;;;;;;4.30;1.50;;;17.30;72.00;;;;;;5426170;26;20012;-60
2024/04/22 08:52:31;;;;;;;4.57;1.70;;;17.30;72.00;;;;;;5426443;26;20250;-60
2024/04/22 08:54:57;;;;;;;4.05;1.58;;;17.40;72.00;;;;;;5425377;26;20477;-60
2024/04/22 08:57:22;;;;;;;5.57;1.70;;;17.40;71.90;;;;;;5427870;26;20046;-59
2024/04/22 08:59:48;;;;;;;4.60;1.60;;;17.40;71.90;;;;;;5422951;26;20392;-60
2024/04/22 09:02:14;;;;;;;4.70;1.80;;;17.50;71.70;;;;;;5429337;26;19999;-60
2024/04/22 09:04:41;;;;;;;4.13;1.48;;;17.50;71.60;;;;;;5423677;26;20000;-60
2024/04/22 09:07:14;;;;;;;4.68;1.63;;;17.60;71.60;;;;;;5427599;26;20000;-60
2024/04/22 09:09:44;;;;;;;3.78;1.50;;;17.60;71.70;;;;;;5425743;26;20010;-59
2024/04/22 09:12:19;;;;;;;4.80;1.83;;;17.60;71.70;;;;;;5421804;26;19995;-60
2024/04/22 09:14:45;;;;;;;3.78;1.40;;;17.60;71.60;;;;;;5422449;26;20462;-59
2024/04/22 09:17:16;;;;;;;4.60;1.70;;;17.60;71.60;;;;;;5423168;26;19995;-60
2024/04/22 09:19:44;;;;;;;5.15;1.65;;;17.60;71.60;;;;;;5422207;26;20354;-60
2024/04/22 09:22:10;;;;;;;4.20;1.40;;;17.60;71.40;;;;;;5426364;26;20014;-60
2024/04/22 09:24:36;;;;;;;3.20;1.23;;;17.60;71.50;;;;;;5423345;26;20003;-60
2024/04/22 09:27:03;;;;;;;4.20;1.42;;;17.60;71.60;;;;;;5426884;26;20014;-60
2024/04/22 09:29:33;;;;;;;4.57;1.50;;;17.60;71.60;;;;;;5425767;26;20016;-59
2024/04/22 09:32:03;;;;;;;4.43;1.40;;;17.50;71.50;;;;;;5426034;26;19995;-59
2024/04/22 09:34:31;;;;;;;4.57;1.55;;;17.60;71.60;;;;;;5426077;26;20462;-60
2024/04/22 09:36:59;;;;;;;3.53;1.40;;;17.50;71.60;;;;;;5435480;26;20027;-59
2024/04/22 09:39:27;;;;;;;3.70;1.42;;;17.50;71.60;;;;;;5424385;26;20088;-59
2024/04/22 09:41:52;;;;;;;4.85;1.50;;;17.50;71.70;;;;;;5420460;26;20031;-60
2024/04/22 09:44:19;;;;;;;4.18;1.50;;;17.50;71.70;;;;;;5427484;26;19995;-60
2024/04/22 09:46:47;;;;;;;4.13;1.50;;;17.50;71.70;;;;;;5421931;26;20012;-59
2024/04/22 09:49:16;;;;;;;3.75;1.40;;;17.40;71.70;;;;;;5428801;26;20617;-60
2024/04/22 09:51:44;;;;;;;3.38;1.40;;;17.40;71.70;;;;;;5429442;26;20000;-59
2024/04/22 09:54:12;;;;;;;4.97;1.70;;;17.40;71.70;;;;;;5418254;26;20010;-60
2024/04/22 09:56:39;;;;;;;4.30;1.58;;;17.40;71.70;;;;;;5420970;26;20011;-60
2024/04/22 09:59:06;;;;;;;4.97;1.70;;;17.40;71.60;;;;;;5426562;26;20019;-60
2024/04/22 10:01:31;;;;;;;4.55;1.60;;;17.40;71.60;;;;;;5423528;26;19999;-60
2024/04/22 10:03:58;;;;;;;4.35;1.38;;;17.40;71.70;;;;;;5425420;26;20000;-60
2024/04/22 10:06:25;;;;;;;4.43;1.60;;;17.40;71.70;;;;;;5424036;26;19999;-60
2024/04/22 10:08:52;;;;;;;4.50;1.40;;;17.40;71.70;;;;;;5424507;26;20004;-60
2024/04/22 10:11:18;;;;;;;4.88;1.52;;;17.40;71.80;;;;;;5424508;26;20050;-61
2024/04/22 10:13:43;;;;;;;4.30;1.40;;;17.30;71.80;;;;;;5423494;26;20381;-60
2024/04/22 10:16:13;;;;;;;4.13;1.50;;;17.30;71.80;;;;;;5429903;26;20459;-60
2024/04/22 10:18:48;;;;;;;4.07;1.42;;;17.30;71.90;;;;;;5429959;26;20011;-61
2024/04/22 10:21:14;;;;;;;4.38;1.33;;;17.30;71.90;;;;;;5430413;26;20414;-60
2024/04/22 10:23:39;;;;;;;4.05;1.50;;;17.30;71.80;;;;;;5425972;26;20003;-60
2024/04/22 10:26:18;;;;;;;3.67;1.40;;;17.30;71.80;;;;;;5423801;26;19996;-61
2024/04/22 10:28:46;;;;;;;3.42;1.40;;;17.30;71.80;;;;;;5429524;26;20010;-61
2024/04/22 10:31:22;;;;;;;3.80;1.40;;;17.20;71.70;;;;;;5428846;26;20007;-61
2024/04/22 10:33:53;;;;;;;4.53;1.40;;;17.30;71.80;;;;;;5424393;26;20084;-61
2024/04/22 10:36:18;;;;;;;4.00;1.40;;;17.30;71.80;;;;;;5426348;26;19999;-61
2024/04/22 10:38:44;;;;;;;3.72;1.45;;;17.30;71.70;;;;;;5422503;26;20014;-60
2024/04/22 10:41:10;;;;;;;4.45;1.58;;;17.20;71.70;;;;;;5425845;26;20069;-61
2024/04/22 10:43:36;;;;;;;3.22;1.35;;;17.20;71.70;;;;;;5428607;26;19999;-61
2024/04/22 10:46:02;;;;;;;4.15;1.50;;;17.20;71.70;;;;;;5422676;26;20449;-61
2024/04/22 10:48:27;;;;;;;3.63;1.50;;;17.20;71.70;;;;;;5430704;26;20043;-61
2024/04/22 10:50:55;;;;;;;4.57;1.30;;;17.20;71.70;;;;;;5426334;26;20003;-61
2024/04/22 10:53:21;;;;;;;3.95;1.30;;;17.20;71.70;;;;;;5426877;26;20631;-60
2024/04/22 10:55:47;;;;;;;4.05;1.40;;;17.20;71.70;;;;;;5426534;26;19999;-61
2024/04/22 10:58:13;;;;;;;4.03;1.60;;;17.20;71.70;;;;;;5424934;26;19994;-61
2024/04/22 11:00:39;;;;;;;3.63;1.40;;;17.20;71.80;;;;;;5427809;26;20006;-61
2024/04/22 11:03:07;;;;;;;3.15;1.23;;;17.20;71.70;;;;;;5430136;26;19999;-61
2024/04/22 11:05:33;;;;;;;3.75;1.42;;;17.20;71.70;;;;;;5420831;26;20350;-61
2024/04/22 11:07:59;;;;;;;3.47;1.40;;;17.20;71.70;;;;;;5423481;26;20347;-60
2024/04/22 11:10:27;;;;;;;3.22;1.30;;;17.20;71.70;;;;;;5422811;26;20524;-60
2024/04/22 11:12:54;;;;;;;2.65;1.13;;;17.30;71.70;;;;;;5426237;26;20015;-60
2024/04/22 11:15:21;;;;;;;4.45;1.52;;;17.30;71.70;;;;;;5425192;26;20005;-60
2024/04/22 11:17:46;;;;;;;3.67;1.33;;;17.30;71.70;;;;;;5423977;26;19999;-60
2024/04/22 11:20:13;;;;;;;4.82;1.60;;;17.30;71.60;;;;;;5420202;26;20010;-60
2024/04/22 11:22:39;;;;;;;3.70;1.35;;;17.30;71.60;;;;;;5422891;26;20006;-59
2024/04/22 11:25:10;;;;;;;3.65;1.35;;;17.30;71.60;;;;;;5421198;26;20076;-60
2024/04/22 11:27:37;;;;;;;4.43;1.48;;;17.30;71.60;;;;;;5420961;26;20011;-60
2024/04/22 11:30:03;;;;;;;4.15;1.42;;;17.30;71.50;;;;;;5428166;26;20011;-60
2024/04/22 11:32:28;;;;;;;4.35;1.27;;;17.30;71.50;;;;;;5421221;26;19996;-60
2024/04/22 11:34:56;;;;;;;4.97;1.30;;;17.30;71.50;;;;;;5425479;26;20610;-60
2024/04/22 11:37:21;;;;;;;3.85;1.38;;;17.30;71.50;;;;;;5421722;26;19998;-60
2024/04/22 11:39:50;;;;;;;3.88;1.40;;;17.30;71.40;;;;;;5422031;26;20714;-60
2024/04/22 11:42:16;;;;;;;4.50;1.60;;;17.30;71.90;;;;;;5423071;26;20535;-60
2024/04/22 11:44:42;;;;;;;3.75;1.30;;;17.40;71.40;;;;;;5423860;26;19999;-59
2024/04/22 11:47:08;;;;;;;3.35;1.30;;;17.30;71.40;;;;;;5421376;26;20011;-60
2024/04/22 11:49:33;;;;;;;4.00;1.40;;;17.40;71.40;;;;;;5426164;26;19999;-60
2024/04/22 11:51:59;;;;;;;3.15;1.38;;;17.40;71.40;;;;;;5420361;26;20007;-60
2024/04/22 11:54:24;;;;;;;4.38;1.48;;;17.40;71.40;;;;;;5422837;26;20568;-60
2024/04/22 11:56:51;;;;;;;3.65;1.30;;;17.30;71.40;;;;;;5424183;26;20497;-60
2024/04/22 11:59:17;;;;;;;5.53;1.70;;;17.30;71.40;;;;;;5427590;26;20059;-60
2024/04/22 12:01:42;;;;;;;4.68;1.60;;;17.40;71.50;;;;;;5426958;26;20603;-60
2024/04/22 12:04:10;;;;;;;3.38;1.10;;;17.40;71.40;;;;;;5425344;26;20356;-60
2024/04/22 12:06:36;;;;;;;2.95;1.25;;;17.40;71.50;;;;;;5428211;26;20003;-60
2024/04/22 12:09:02;;;;;;;3.55;1.40;;;17.40;72.10;;;;;;5423956;26;20004;-60
2024/04/22 12:11:28;;;;;;;3.88;1.40;;;17.40;71.50;;;;;;5442820;26;20071;-60
2024/04/22 12:13:56;;;;;;;6.00;1.38;;;17.40;71.50;;;;;;5424041;26;20011;-60
2024/04/22 12:16:21;;;;;;;3.33;1.40;;;17.40;71.50;;;;;;5428825;26;20651;-60
2024/04/22 12:18:47;;;;;;;3.63;1.30;;;17.40;71.50;;;;;;5422948;26;20000;-60
2024/04/22 12:21:13;;;;;;;5.68;1.52;;;17.40;71.50;;;;;;5426843;26;19995;-60
2024/04/22 12:23:38;;;;;;;4.15;1.50;;;17.40;71.50;;;;;;5424615;26;19998;-60
2024/04/22 12:26:06;;;;;;;4.32;1.40;;;17.40;71.50;;;;;;5424393;26;20356;-60
2024/04/22 12:28:31;;;;;;;4.35;1.40;;;17.40;71.50;;;;;;5430478;26;20374;-60
2024/04/22 12:30:57;;;;;;;3.15;1.23;;;17.50;71.40;;;;;;5423459;26;20054;-60
2024/04/22 12:33:22;;;;;;;3.05;1.10;;;17.40;71.30;;;;;;5429094;26;19999;-60
2024/04/22 12:35:48;;;;;;;3.55;1.30;;;17.50;71.30;;;;;;5429108;26;19998;-59
2024/04/22 12:38:14;;;;;;;3.53;1.30;;;17.40;71.30;;;;;;5427376;26;20013;-60
2024/04/22 12:40:42;;;;;;;4.15;1.35;;;17.50;71.30;;;;;;5419482;26;20012;-60
2024/04/22 12:43:08;;;;;;;3.80;1.30;;;17.50;71.30;;;;;;5434942;26;20794;-59
2024/04/22 12:45:35;;;;;;;3.58;1.27;;;17.50;71.30;;;;;;5424611;26;20036;-60
2024/04/22 12:50:48;;;;;;;3.00;1.30;;;17.40;71.30;;;;;;5426483;26;20074;-60
2024/04/22 12:53:17;;;;;;;2.88;1.20;;;17.40;71.30;;;;;;5426923;26;20073;-60
2024/04/22 12:55:42;;;;;;;2.53;1.17;;;17.40;71.30;;;;;;5425277;26;19995;-59